createdAt,value
2023-03-11T00:00:37.141Z,0.70
2023-03-11T00:03:05.371Z,0.70
2023-03-11T00:05:35.233Z,0.60
2023-03-11T00:08:04.222Z,0.10
2023-03-11T00:10:39.830Z,0.00
2023-03-11T00:13:08.514Z,-0.10
2023-03-11T00:15:36.582Z,-0.10
2023-03-11T00:18:04.245Z,-0.30
2023-03-11T00:20:34.662Z,-0.20
2023-03-11T00:23:02.066Z,-0.30
2023-03-11T00:25:31.321Z,-0.40
2023-03-11T00:27:58.580Z,-0.40
2023-03-11T00:30:26.207Z,-0.30
2023-03-11T00:32:55.154Z,-0.20
2023-03-11T00:35:27.823Z,-0.30
2023-03-11T00:37:57.904Z,-0.20
2023-03-11T00:40:26.786Z,-0.10
2023-03-11T00:42:53.918Z,-0.10
2023-03-11T00:45:21.065Z,-0.10
2023-03-11T00:47:48.094Z,-0.10
2023-03-11T00:50:18.517Z,-0.30
2023-03-11T00:52:47.298Z,-0.40
2023-03-11T00:55:17.483Z,-0.40
2023-03-11T00:57:45.253Z,-0.50
2023-03-11T01:00:19.743Z,-0.60
2023-03-11T01:02:47.053Z,-0.70
2023-03-11T01:05:14.711Z,-0.80
2023-03-11T01:07:42.064Z,-0.70
2023-03-11T01:10:09.686Z,-0.60
2023-03-11T01:12:36.669Z,-0.60
2023-03-11T01:15:04.511Z,-0.60
2023-03-11T01:17:31.529Z,-0.50
2023-03-11T01:19:58.450Z,-0.50
2023-03-11T01:22:25.406Z,-0.60
2023-03-11T01:24:52.379Z,-0.60
2023-03-11T01:27:19.294Z,-0.50
2023-03-11T01:29:46.231Z,-0.40
2023-03-11T01:32:13.231Z,-0.30
2023-03-11T01:34:40.130Z,-0.20
2023-03-11T01:37:07.089Z,-0.20
2023-03-11T01:39:34.036Z,-0.20
2023-03-11T01:42:00.929Z,-0.10
2023-03-11T01:44:27.905Z,-0.10
2023-03-11T01:46:54.812Z,-0.20
2023-03-11T01:49:23.156Z,-0.20
2023-03-11T01:51:57.401Z,-0.10
2023-03-11T01:54:30.831Z,-0.20
2023-03-11T01:56:59.793Z,-0.10
2023-03-11T01:59:32.484Z,-0.20
2023-03-11T02:02:09.756Z,-0.20
2023-03-11T02:04:37.387Z,-0.10
2023-03-11T02:07:07.259Z,-0.20
2023-03-11T02:09:34.223Z,-0.30
2023-03-11T02:12:02.058Z,-0.20
2023-03-11T02:14:31.057Z,-0.20
2023-03-11T02:16:58.861Z,-0.20
2023-03-11T02:19:34.798Z,-0.20
2023-03-11T02:22:02.517Z,-0.20
2023-03-11T02:24:51.637Z,-0.20
2023-03-11T02:27:21.520Z,-0.10
2023-03-11T02:29:51.657Z,-0.10
2023-03-11T02:32:19.474Z,-0.20
2023-03-11T02:34:46.466Z,-0.20
2023-03-11T02:37:16.777Z,-0.20
2023-03-11T02:39:50.572Z,-0.20
2023-03-11T02:42:29.174Z,-0.30
2023-03-11T02:45:01.180Z,-0.20
2023-03-11T02:47:28.492Z,-0.20
2023-03-11T02:49:57.246Z,-0.10
2023-03-11T02:52:29.388Z,-0.10
2023-03-11T02:54:56.274Z,-0.10
2023-03-11T02:57:23.209Z,0.00
2023-03-11T02:59:50.128Z,0.00
2023-03-11T03:02:17.084Z,0.00
2023-03-11T03:04:44.599Z,0.00
2023-03-11T03:07:11.700Z,0.10
2023-03-11T03:09:38.639Z,0.00
2023-03-11T03:12:06.071Z,0.00
2023-03-11T03:14:33.330Z,0.00
2023-03-11T03:17:00.302Z,0.10
2023-03-11T03:19:27.281Z,0.10
2023-03-11T03:21:54.264Z,0.10
2023-03-11T03:24:21.158Z,0.00
2023-03-11T03:26:48.043Z,0.00
2023-03-11T03:29:15.010Z,-0.10
2023-03-11T03:31:42.026Z,-0.10
2023-03-11T03:34:09.322Z,-0.20
2023-03-11T03:36:36.246Z,-0.20
2023-03-11T03:39:04.154Z,-0.30
2023-03-11T03:41:31.066Z,-0.30
2023-03-11T03:43:59.124Z,-0.30
2023-03-11T03:46:26.396Z,-0.40
2023-03-11T03:48:53.320Z,-0.50
2023-03-11T03:51:20.273Z,-0.50
2023-03-11T03:53:47.239Z,-0.50
2023-03-11T03:56:17.159Z,-0.50
2023-03-11T03:58:44.149Z,-0.60
2023-03-11T04:01:12.134Z,-0.50
2023-03-11T04:03:39.682Z,-0.50
2023-03-11T04:06:11.366Z,-0.40
2023-03-11T04:08:38.395Z,-0.40
2023-03-11T04:11:05.310Z,-0.40
2023-03-11T04:13:32.352Z,-0.40
2023-03-11T04:15:59.749Z,-0.40
2023-03-11T04:18:26.809Z,-0.40
2023-03-11T04:20:53.678Z,-0.50
2023-03-11T04:23:20.621Z,-0.50
2023-03-11T04:25:47.565Z,-0.50
2023-03-11T04:28:14.549Z,-0.40
2023-03-11T04:30:41.891Z,-0.40
2023-03-11T04:33:08.891Z,-0.30
2023-03-11T04:35:38.564Z,-0.30
2023-03-11T04:38:05.488Z,-0.40
2023-03-11T04:40:32.502Z,-0.40
2023-03-11T04:42:59.427Z,-0.50
2023-03-11T04:45:26.376Z,-0.60
2023-03-11T04:47:53.280Z,-0.70
2023-03-11T04:50:20.282Z,-0.70
2023-03-11T04:52:47.491Z,-0.80
2023-03-11T04:55:14.728Z,-0.80
2023-03-11T04:57:42.634Z,-0.90
2023-03-11T05:00:12.728Z,-1.00
2023-03-11T05:02:40.417Z,-1.10
2023-03-11T05:05:09.174Z,-1.00
2023-03-11T05:07:37.333Z,-1.00
2023-03-11T05:10:05.516Z,-1.00
2023-03-11T05:12:33.160Z,-1.00
2023-03-11T05:15:00.123Z,-1.00
2023-03-11T05:17:27.052Z,-0.90
2023-03-11T05:19:54.276Z,-0.80
2023-03-11T05:22:21.971Z,-0.80
2023-03-11T05:24:48.959Z,-0.90
2023-03-11T05:27:19.984Z,-1.00
2023-03-11T05:29:46.986Z,-1.10
2023-03-11T05:32:14.450Z,-1.20
2023-03-11T05:34:41.634Z,-1.20
2023-03-11T05:37:09.156Z,-1.20
2023-03-11T05:39:37.803Z,-1.30
2023-03-11T05:42:08.681Z,-1.30
2023-03-11T05:44:35.714Z,-1.50
2023-03-11T05:47:02.767Z,-1.50
2023-03-11T05:49:29.720Z,-1.60
2023-03-11T05:51:58.666Z,-1.70
2023-03-11T05:54:26.072Z,-1.70
2023-03-11T05:56:53.240Z,-1.70
2023-03-11T05:59:20.259Z,-1.60
2023-03-11T06:01:47.224Z,-1.60
2023-03-11T06:04:14.268Z,-1.50
2023-03-11T06:06:42.565Z,-1.50
2023-03-11T06:09:13.446Z,-1.40
2023-03-11T06:11:40.687Z,-1.30
2023-03-11T06:14:07.935Z,-1.20
2023-03-11T06:16:34.863Z,-1.20
2023-03-11T06:19:02.172Z,-1.30
2023-03-11T06:21:29.094Z,-1.30
2023-03-11T06:23:56.026Z,-1.40
2023-03-11T06:26:23.941Z,-1.40
2023-03-11T06:28:52.685Z,-1.50
2023-03-11T06:31:25.563Z,-1.60
2023-03-11T06:33:53.511Z,-1.70
2023-03-11T06:36:21.053Z,-1.80
2023-03-11T06:38:50.132Z,-1.80
2023-03-11T06:41:17.244Z,-1.90
2023-03-11T06:43:44.277Z,-1.90
2023-03-11T06:46:13.905Z,-1.80
2023-03-11T06:48:41.056Z,-1.80
2023-03-11T06:51:08.106Z,-1.90
2023-03-11T06:53:35.049Z,-2.00
2023-03-11T06:56:13.209Z,-2.00
2023-03-11T06:58:42.390Z,-1.90
2023-03-11T07:01:12.716Z,-2.00
2023-03-11T07:03:39.916Z,-1.90
2023-03-11T07:06:11.410Z,-1.90
2023-03-11T07:08:38.340Z,-1.90
2023-03-11T07:11:14.838Z,-1.70
2023-03-11T07:13:41.967Z,-1.80
2023-03-11T07:16:12.930Z,-1.80
2023-03-11T07:18:39.995Z,-1.80
2023-03-11T07:21:08.446Z,-1.70
2023-03-11T07:23:36.330Z,-1.30
2023-03-11T07:26:03.573Z,-0.80
2023-03-11T07:28:30.758Z,-0.20
2023-03-11T07:30:57.883Z,0.30
2023-03-11T07:33:25.315Z,0.20
2023-03-11T07:35:53.310Z,0.50
2023-03-11T07:38:20.333Z,1.00
2023-03-11T07:40:47.562Z,1.30
2023-03-11T07:43:15.134Z,1.50
2023-03-11T07:45:42.095Z,1.60
2023-03-11T07:48:09.062Z,1.20
2023-03-11T07:50:36.065Z,1.00
2023-03-11T07:53:03.032Z,1.40
2023-03-11T07:55:30.088Z,1.50
2023-03-11T07:57:57.061Z,1.70
2023-03-11T08:00:24.058Z,1.50
2023-03-11T08:02:51.028Z,1.50
2023-03-11T08:05:20.839Z,1.50
2023-03-11T08:07:47.987Z,1.50
2023-03-11T08:10:14.979Z,1.50
2023-03-11T08:12:41.959Z,1.30
2023-03-11T08:15:09.850Z,1.30
2023-03-11T08:17:36.807Z,1.20
2023-03-11T08:20:05.364Z,1.20
2023-03-11T08:22:32.287Z,1.60
2023-03-11T08:24:59.194Z,1.70
2023-03-11T08:27:28.876Z,1.50
2023-03-11T08:29:55.809Z,1.50
2023-03-11T08:32:22.846Z,1.70
2023-03-11T08:34:49.882Z,2.00
2023-03-11T08:37:16.882Z,2.00
2023-03-11T08:39:43.765Z,2.10
2023-03-11T08:42:11.741Z,2.50
2023-03-11T08:44:39.375Z,2.80
2023-03-11T08:47:06.886Z,3.10
2023-03-11T08:49:34.422Z,3.00
2023-03-11T08:52:02.733Z,2.90
2023-03-11T08:54:29.869Z,2.90
2023-03-11T08:56:56.834Z,3.00
2023-03-11T08:59:23.777Z,3.30
2023-03-11T09:01:50.705Z,3.50
2023-03-11T09:04:17.600Z,3.60
2023-03-11T09:06:45.058Z,3.70
2023-03-11T09:09:12.860Z,3.90
2023-03-11T09:11:40.596Z,4.10
2023-03-11T09:14:07.789Z,4.30
2023-03-11T09:16:35.061Z,4.20
2023-03-11T09:19:06.963Z,3.90
2023-03-11T09:21:34.982Z,3.50
2023-03-11T09:24:04.323Z,3.30
2023-03-11T09:26:32.458Z,3.70
2023-03-11T09:28:59.457Z,3.80
2023-03-11T09:31:26.441Z,3.30
2023-03-11T09:33:55.527Z,3.10
2023-03-11T09:36:22.682Z,3.50
2023-03-11T09:38:49.661Z,3.50
2023-03-11T09:41:28.529Z,3.30
2023-03-11T09:44:05.362Z,3.70
2023-03-11T09:46:59.794Z,4.00
2023-03-11T09:49:37.065Z,3.60
2023-03-11T09:52:14.244Z,3.60
2023-03-11T09:54:48.155Z,3.90
2023-03-11T09:57:21.254Z,4.00
2023-03-11T09:59:48.945Z,4.40
2023-03-11T10:02:20.029Z,4.40
2023-03-11T10:05:01.663Z,4.10
2023-03-11T10:07:34.203Z,4.40
2023-03-11T10:10:01.128Z,4.90
2023-03-11T10:13:01.302Z,5.40
2023-03-11T10:15:48.282Z,5.50
2023-03-11T10:18:33.764Z,5.30
2023-03-11T10:21:31.637Z,5.60
2023-03-11T10:24:01.286Z,6.10
2023-03-11T10:26:38.474Z,6.30
2023-03-11T10:29:28.840Z,6.40
2023-03-11T10:32:26.441Z,6.90
2023-03-11T10:35:11.837Z,7.10
2023-03-11T10:37:57.074Z,7.00
2023-03-11T10:40:34.748Z,6.70
2023-03-11T10:43:06.092Z,7.10
2023-03-11T10:45:44.720Z,7.40
2023-03-11T10:48:17.090Z,7.50
2023-03-11T10:50:52.511Z,7.50
2023-03-11T10:53:21.022Z,7.70
2023-03-11T10:55:51.038Z,7.70
2023-03-11T10:58:21.652Z,7.70
2023-03-11T11:01:05.138Z,7.30
2023-03-11T11:03:34.192Z,7.10
2023-03-11T11:06:07.103Z,6.50
2023-03-11T11:08:34.750Z,6.80
2023-03-11T11:11:04.258Z,6.40
2023-03-11T11:13:34.709Z,6.60
2023-03-11T11:16:06.147Z,6.70
2023-03-11T11:18:44.237Z,6.70
2023-03-11T11:21:17.207Z,6.80
2023-03-11T11:23:49.392Z,6.80
2023-03-11T11:26:25.578Z,6.90
2023-03-11T11:29:14.573Z,6.90
2023-03-11T11:31:46.480Z,7.80
2023-03-11T11:34:34.985Z,8.20
2023-03-11T11:37:06.185Z,8.70
2023-03-11T11:39:43.829Z,8.90
2023-03-11T11:42:13.849Z,9.10
2023-03-11T11:44:43.153Z,9.10
2023-03-11T11:47:21.841Z,9.10
2023-03-11T11:50:01.350Z,9.00
2023-03-11T11:52:33.084Z,8.90
2023-03-11T11:55:11.462Z,8.50
2023-03-11T11:57:38.404Z,8.50
2023-03-11T12:00:21.141Z,8.60
2023-03-11T12:03:26.250Z,9.10
2023-03-11T12:06:20.353Z,9.10
2023-03-11T12:09:24.403Z,8.80
2023-03-11T12:12:03.412Z,9.20
2023-03-11T12:14:48.468Z,9.60
2023-03-11T12:17:18.004Z,10.20
2023-03-11T12:20:15.555Z,11.30
2023-03-11T12:23:29.965Z,11.30
2023-03-11T12:26:18.474Z,10.60
2023-03-11T12:28:59.770Z,11.20
2023-03-11T12:31:34.415Z,11.00
2023-03-11T12:34:04.468Z,11.00
2023-03-11T12:36:37.721Z,11.40
2023-03-11T12:39:07.405Z,10.80
2023-03-11T12:41:42.260Z,10.60
2023-03-11T12:44:26.080Z,10.60
2023-03-11T12:46:59.130Z,11.10
2023-03-11T12:49:32.828Z,10.60
2023-03-11T12:52:11.747Z,10.50
2023-03-11T12:54:43.520Z,10.20
2023-03-11T12:57:16.523Z,10.70
2023-03-11T13:00:18.403Z,11.40
2023-03-11T13:03:22.041Z,11.10
2023-03-11T13:06:11.064Z,10.90
2023-03-11T13:08:47.457Z,11.00
2023-03-11T13:11:32.819Z,11.30
2023-03-11T13:14:16.247Z,11.20
2023-03-11T13:16:44.171Z,11.20
2023-03-11T13:19:32.648Z,11.40
2023-03-11T13:22:01.875Z,11.60
2023-03-11T13:24:31.434Z,11.90
2023-03-11T13:27:06.750Z,12.50
2023-03-11T13:30:20.762Z,13.00
2023-03-11T13:32:59.261Z,12.90
2023-03-11T13:35:48.561Z,11.80
2023-03-11T13:38:35.281Z,12.30
2023-03-11T13:41:04.589Z,12.30
2023-03-11T13:43:31.475Z,12.20
2023-03-11T13:46:07.494Z,12.30
2023-03-11T13:48:40.573Z,12.30
2023-03-11T13:51:20.674Z,12.30
2023-03-11T13:53:57.198Z,12.60
2023-03-11T13:56:31.610Z,13.00
2023-03-11T13:59:36.982Z,13.00
2023-03-11T14:02:19.542Z,12.70
2023-03-11T14:04:53.096Z,12.50
2023-03-11T14:07:35.290Z,12.70
2023-03-11T14:10:23.221Z,12.50
2023-03-11T14:12:50.511Z,12.90
2023-03-11T14:15:27.606Z,12.50
2023-03-11T14:18:14.710Z,12.50
2023-03-11T14:20:42.034Z,12.00
2023-03-11T14:23:18.217Z,11.30
2023-03-11T14:25:45.147Z,11.30
2023-03-11T14:28:21.802Z,10.90
2023-03-11T14:31:02.928Z,11.10
2023-03-11T14:33:30.122Z,10.90
2023-03-11T14:36:10.696Z,10.60
2023-03-11T14:38:44.392Z,10.40
2023-03-11T14:41:14.109Z,10.50
2023-03-11T14:43:45.683Z,10.10
2023-03-11T14:46:22.738Z,10.20
2023-03-11T14:48:50.260Z,10.10
2023-03-11T14:51:22.234Z,10.10
2023-03-11T14:53:58.207Z,10.00
2023-03-11T14:56:27.036Z,9.90
2023-03-11T14:59:08.382Z,9.60
2023-03-11T15:01:42.616Z,9.60
2023-03-11T15:04:33.358Z,9.80
2023-03-11T15:07:04.090Z,9.70
2023-03-11T15:09:32.293Z,10.20
2023-03-11T15:12:01.633Z,10.80
2023-03-11T15:14:37.423Z,11.10
2023-03-11T15:17:37.353Z,11.30
2023-03-11T15:20:27.880Z,10.70
2023-03-11T15:22:58.409Z,10.50
2023-03-11T15:25:25.360Z,10.90
2023-03-11T15:27:52.558Z,11.20
2023-03-11T15:30:31.556Z,11.20
2023-03-11T15:32:59.029Z,9.90
2023-03-11T15:35:30.985Z,9.40
2023-03-11T15:38:28.331Z,9.60
2023-03-11T15:41:01.196Z,10.20
2023-03-11T15:44:04.170Z,10.10
2023-03-11T15:46:31.134Z,9.80
2023-03-11T15:48:58.052Z,9.50
2023-03-11T15:51:25.015Z,9.60
2023-03-11T15:53:51.910Z,9.80
2023-03-11T15:56:24.738Z,9.80
2023-03-11T15:58:51.775Z,9.70
2023-03-11T16:01:23.766Z,9.60
2023-03-11T16:03:51.409Z,9.30
2023-03-11T16:06:18.637Z,9.00
2023-03-11T16:08:45.648Z,8.60
2023-03-11T16:11:13.340Z,8.20
2023-03-11T16:13:40.346Z,7.80
2023-03-11T16:16:13.112Z,7.30
2023-03-11T16:18:40.053Z,6.70
2023-03-11T16:21:12.262Z,6.20
2023-03-11T16:23:51.209Z,5.90
2023-03-11T16:26:19.817Z,5.70
2023-03-11T16:28:46.749Z,5.50
2023-03-11T16:31:13.980Z,5.40
2023-03-11T16:33:40.906Z,5.30
2023-03-11T16:36:08.160Z,5.30
2023-03-11T16:38:45.519Z,5.30
2023-03-11T16:41:12.645Z,5.30
2023-03-11T16:43:39.581Z,5.20
2023-03-11T16:46:06.719Z,5.20
2023-03-11T16:48:33.957Z,5.10
2023-03-11T16:51:01.366Z,5.00
2023-03-11T16:53:28.457Z,5.00
2023-03-11T16:55:55.401Z,4.90
2023-03-11T16:58:22.361Z,4.90
2023-03-11T17:00:49.403Z,4.70
2023-03-11T17:03:21.334Z,4.60
2023-03-11T17:05:48.965Z,4.50
2023-03-11T17:08:18.297Z,4.40
2023-03-11T17:10:46.506Z,4.30
2023-03-11T17:13:17.105Z,4.10
2023-03-11T17:15:45.892Z,3.90
2023-03-11T17:18:13.737Z,3.80
2023-03-11T17:20:43.510Z,3.60
2023-03-11T17:23:10.791Z,3.40
2023-03-11T17:25:41.645Z,3.30
2023-03-11T17:28:09.182Z,3.10
2023-03-11T17:30:38.879Z,3.00
2023-03-11T17:33:05.875Z,3.00
2023-03-11T17:35:33.126Z,3.00
2023-03-11T17:38:00.292Z,3.00
2023-03-11T17:40:29.442Z,2.90
2023-03-11T17:42:56.716Z,2.90
2023-03-11T17:45:23.781Z,2.90
2023-03-11T17:47:50.801Z,2.90
2023-03-11T17:50:18.059Z,3.00
2023-03-11T17:52:46.657Z,3.00
2023-03-11T17:55:13.809Z,3.10
2023-03-11T17:57:45.443Z,3.20
2023-03-11T18:00:14.944Z,3.20
2023-03-11T18:02:42.250Z,3.30
2023-03-11T18:05:09.545Z,3.30
2023-03-11T18:07:40.857Z,3.40
2023-03-11T18:10:09.864Z,3.20
2023-03-11T18:12:37.838Z,3.10
2023-03-11T18:15:08.275Z,3.10
2023-03-11T18:17:35.778Z,3.00
2023-03-11T18:20:03.525Z,2.90
2023-03-11T18:22:30.425Z,2.90
2023-03-11T18:24:57.861Z,2.80
2023-03-11T18:27:24.886Z,2.80
2023-03-11T18:29:52.034Z,2.70
2023-03-11T18:32:21.041Z,2.70
2023-03-11T18:34:51.420Z,2.70
2023-03-11T18:37:18.534Z,2.60
2023-03-11T18:39:45.568Z,2.50
2023-03-11T18:42:14.105Z,2.40
2023-03-11T18:44:42.141Z,2.50
2023-03-11T18:47:09.181Z,2.50
2023-03-11T18:49:36.126Z,2.60
2023-03-11T18:52:03.101Z,2.60
2023-03-11T18:54:30.101Z,2.50
2023-03-11T18:56:57.042Z,2.50
2023-03-11T18:59:23.933Z,2.50
2023-03-11T19:01:51.106Z,2.50
2023-03-11T19:04:18.015Z,2.50
2023-03-11T19:06:44.991Z,2.60
2023-03-11T19:09:12.057Z,2.50
2023-03-11T19:11:39.041Z,2.50
2023-03-11T19:14:06.020Z,2.50
2023-03-11T19:16:32.988Z,2.40
2023-03-11T19:19:00.503Z,2.40
2023-03-11T19:21:27.890Z,2.30
2023-03-11T19:23:57.087Z,2.30
2023-03-11T19:26:41.570Z,2.30
2023-03-11T19:29:11.301Z,2.20
2023-03-11T19:31:38.294Z,2.20
2023-03-11T19:34:05.200Z,2.20
2023-03-11T19:36:32.181Z,2.20
2023-03-11T19:38:59.075Z,2.10
2023-03-11T19:41:26.069Z,2.00
2023-03-11T19:43:53.066Z,2.00
2023-03-11T19:46:22.025Z,2.00
2023-03-11T19:48:49.167Z,2.00
2023-03-11T19:51:17.414Z,1.90
2023-03-11T19:53:44.580Z,1.90
2023-03-11T19:56:11.628Z,1.90
2023-03-11T19:58:38.615Z,2.00
2023-03-11T20:01:05.588Z,1.90
2023-03-11T20:03:32.599Z,1.80
2023-03-11T20:06:07.066Z,1.70
2023-03-11T20:08:37.805Z,1.60
2023-03-11T20:11:05.985Z,1.70
2023-03-11T20:13:34.529Z,1.80
2023-03-11T20:16:10.533Z,1.80
2023-03-11T20:18:37.654Z,1.90
2023-03-11T20:21:06.821Z,2.00
2023-03-11T20:23:34.363Z,2.00
2023-03-11T20:26:09.231Z,2.00
2023-03-11T20:28:36.454Z,2.10
2023-03-11T20:31:19.949Z,2.00
2023-03-11T20:33:48.930Z,2.00
2023-03-11T20:36:21.231Z,2.10
2023-03-11T20:38:50.043Z,2.00
2023-03-11T20:41:17.117Z,2.00
2023-03-11T20:43:45.025Z,2.00
2023-03-11T20:46:12.859Z,2.00
2023-03-11T20:48:40.154Z,2.00
2023-03-11T20:51:10.898Z,1.90
2023-03-11T20:53:38.500Z,1.90
2023-03-11T20:56:10.862Z,2.00
2023-03-11T20:58:38.749Z,2.00
2023-03-11T21:01:21.047Z,2.00
2023-03-11T21:03:48.666Z,2.10
2023-03-11T21:06:24.524Z,2.10
2023-03-11T21:08:57.245Z,2.10
2023-03-11T21:11:25.204Z,2.10
2023-03-11T21:13:53.787Z,2.20
2023-03-11T21:16:21.513Z,2.20
2023-03-11T21:18:49.588Z,2.20
2023-03-11T21:21:17.966Z,2.20
2023-03-11T21:23:45.926Z,2.20
2023-03-11T21:26:14.936Z,2.10
2023-03-11T21:28:46.749Z,2.10
2023-03-11T21:31:19.767Z,2.20
2023-03-11T21:33:47.621Z,2.20
2023-03-11T21:36:17.863Z,2.10
2023-03-11T21:38:45.213Z,2.10
2023-03-11T21:41:25.124Z,2.20
2023-03-11T21:43:56.547Z,2.20
2023-03-11T21:46:26.596Z,2.20
2023-03-11T21:48:53.763Z,2.20
2023-03-11T21:51:21.870Z,2.30
2023-03-11T21:53:49.383Z,2.30
2023-03-11T21:56:16.777Z,2.40
2023-03-11T21:58:43.924Z,2.40
2023-03-11T22:01:11.433Z,2.40
2023-03-11T22:03:38.855Z,2.40
2023-03-11T22:06:11.145Z,2.40
2023-03-11T22:08:38.909Z,2.40
2023-03-11T22:11:13.003Z,2.50
2023-03-11T22:13:40.034Z,2.50
2023-03-11T22:16:08.680Z,2.50
2023-03-11T22:18:35.929Z,2.50
2023-03-11T22:21:03.230Z,2.60
2023-03-11T22:23:30.479Z,2.50
2023-03-11T22:25:57.429Z,2.50
2023-03-11T22:28:24.930Z,2.40
2023-03-11T22:30:52.009Z,2.40
2023-03-11T22:33:19.184Z,2.30
2023-03-11T22:35:56.326Z,2.30
2023-03-11T22:38:24.047Z,2.30
2023-03-11T22:40:51.221Z,2.30
2023-03-11T22:43:18.198Z,2.40
2023-03-11T22:45:46.335Z,2.40
2023-03-11T22:48:13.380Z,2.40
2023-03-11T22:50:41.804Z,2.40
2023-03-11T22:53:09.071Z,2.40
2023-03-11T22:55:42.965Z,2.40
2023-03-11T22:58:10.576Z,2.40
2023-03-11T23:00:37.877Z,2.40
2023-03-11T23:03:05.116Z,2.30
2023-03-11T23:05:32.432Z,2.30
2023-03-11T23:07:59.310Z,2.30
2023-03-11T23:10:26.253Z,2.30
2023-03-11T23:12:53.228Z,2.20
2023-03-11T23:15:20.202Z,2.10
2023-03-11T23:17:47.385Z,1.90
2023-03-11T23:20:16.251Z,1.90
2023-03-11T23:22:43.666Z,1.80
2023-03-11T23:25:16.207Z,1.70
2023-03-11T23:27:45.417Z,1.70
2023-03-11T23:30:14.638Z,1.70
2023-03-11T23:32:41.684Z,1.70
2023-03-11T23:35:09.099Z,1.70
2023-03-11T23:37:36.073Z,1.70
2023-03-11T23:40:03.061Z,1.70
2023-03-11T23:42:34.714Z,1.70
2023-03-11T23:45:02.045Z,1.70
2023-03-11T23:47:29.149Z,1.70
2023-03-11T23:49:56.059Z,1.70
2023-03-11T23:52:23.329Z,1.60
2023-03-11T23:54:50.324Z,1.70
2023-03-11T23:57:17.614Z,1.60
2023-03-11T23:59:44.689Z,1.60
